Time;durP1;ratioP1;P1;durP2;ratioP2;P2;SDS_P1;SDS_P2;PMS_P1;PMS_P2;Temp;Humidity;BMP_temperature;BMP_pressure;BME280_temperature;BME280_humidity;BME280_pressure;Samples;Min_cycle;Max_cycle;Signal;HPM_P1;HPM_P2
2021/01/26 00:00:59;;;;;;;15.23;7.90;;;;;;;-1.67;81.30;95544.98;1789703;80;21138;-92
2021/01/26 00:03:27;;;;;;;10.78;7.00;;;;;;;-1.67;81.36;95548.37;1802733;79;21134;-92
2021/01/26 00:05:54;;;;;;;16.65;10.18;;;;;;;-1.67;81.17;95557.46;1802743;79;21092;-90
2021/01/26 00:08:22;;;;;;;14.20;6.80;;;;;;;-1.69;81.41;95569.89;1802715;80;21176;-91
2021/01/26 00:10:51;;;;;;;15.58;7.00;;;;;;;-1.72;81.49;95577.33;1802744;80;21127;-91
2021/01/26 00:13:20;;;;;;;16.37;8.38;;;;;;;-1.73;81.46;95578.34;1789327;80;21130;-89
2021/01/26 00:15:48;;;;;;;20.72;11.50;;;;;;;-1.72;81.42;95574.73;1802745;79;21130;-92
2021/01/26 00:18:15;;;;;;;13.70;6.85;;;;;;;-1.70;81.26;95585.69;1802817;79;21135;-92
2021/01/26 00:20:43;;;;;;;17.52;9.58;;;;;;;-1.67;81.05;95582.66;1802830;79;21123;-91
2021/01/26 00:23:12;;;;;;;14.58;7.85;;;;;;;-1.69;81.12;95586.78;1802984;80;21179;-90
2021/01/26 00:25:40;;;;;;;13.75;8.15;;;;;;;-1.70;81.19;95585.69;1802737;80;21482;-92
2021/01/26 00:28:12;;;;;;;13.88;7.90;;;;;;;-1.73;81.06;95588.73;1802737;79;21155;-91
2021/01/26 00:30:41;;;;;;;14.10;7.20;;;;;;;-1.75;81.08;95595.46;1802768;80;21135;-91
2021/01/26 00:33:14;;;;;;;12.43;6.57;;;;;;;-1.78;81.13;95581.63;1795478;79;21249;-91
2021/01/26 00:35:43;;;;;;;13.95;8.68;;;;;;;-1.80;81.11;95600.05;1795189;79;21368;-91
2021/01/26 00:38:11;;;;;;;13.60;6.78;;;;;;;-1.80;81.27;95605.23;1795358;79;21173;-91
2021/01/26 00:40:38;;;;;;;11.95;6.30;;;;;;;-1.80;81.26;95597.95;1795155;79;21285;-92
2021/01/26 00:43:08;;;;;;;14.18;6.70;;;;;;;-1.80;81.26;95597.95;1795140;79;21270;-92
2021/01/26 00:45:35;;;;;;;10.18;5.83;;;;;;;-1.83;81.29;95600.50;1795342;79;21277;-92
2021/01/26 00:48:03;;;;;;;11.70;6.97;;;;;;;-1.84;81.41;95595.50;1795212;80;21273;-93
2021/01/26 00:50:30;;;;;;;11.70;6.72;;;;;;;-1.85;81.60;95596.52;1795229;80;21503;-91
2021/01/26 00:52:57;;;;;;;15.00;7.67;;;;;;;-1.87;81.64;95605.84;1795127;79;21658;-91
2021/01/26 00:55:27;;;;;;;8.98;5.50;;;;;;;-1.88;81.73;95600.36;1795307;79;21257;-91
2021/01/26 00:57:54;;;;;;;19.80;10.32;;;;;;;-1.86;81.57;95606.12;1795279;79;21633;-91
2021/01/26 01:00:32;;;;;;;22.42;9.45;;;;;;;-1.85;81.55;95613.41;1795392;79;21515;-91
2021/01/26 01:03:00;;;;;;;19.40;9.73;;;;;;;-1.86;81.70;95610.02;1795285;79;21285;-91
2021/01/26 01:05:27;;;;;;;15.10;7.70;;;;;;;-1.87;81.93;95611.55;1795317;80;21266;-91
2021/01/26 01:07:54;;;;;;;14.90;7.22;;;;;;;-1.88;81.79;95609.96;1795293;79;21277;-90
2021/01/26 01:10:26;;;;;;;20.60;10.70;;;;;;;-1.88;81.99;95615.95;1795385;80;21155;-90
2021/01/26 01:12:55;;;;;;;13.35;7.08;;;;;;;-1.89;82.16;95619.56;1795409;79;21470;-91
2021/01/26 01:15:23;;;;;;;16.75;8.95;;;;;;;-1.90;82.30;95612.78;1795307;79;21280;-91
2021/01/26 01:17:52;;;;;;;20.77;11.43;;;;;;;-1.94;82.50;95616.86;1795463;79;21310;-91
2021/01/26 01:20:26;;;;;;;16.80;9.13;;;;;;;-1.95;82.57;95620.47;1795496;79;21628;-91
2021/01/26 01:22:53;;;;;;;16.12;9.50;;;;;;;-1.96;82.83;95622.78;1795290;79;21273;-89
2021/01/26 01:25:22;;;;;;;12.43;7.30;;;;;;;-1.97;82.77;95619.91;1795285;79;21689;-90
2021/01/26 01:27:50;;;;;;;15.25;6.58;;;;;;;-1.98;82.76;95628.69;1795329;80;21269;-91
2021/01/26 01:30:25;;;;;;;17.80;9.58;;;;;;;-1.99;82.59;95623.72;1795286;80;21302;-90
2021/01/26 01:32:53;;;;;;;11.80;6.40;;;;;;;-2.00;82.70;95632.02;1795535;79;21155;-90
2021/01/26 01:35:20;;;;;;;14.55;7.72;;;;;;;-2.01;82.73;95625.24;1795493;79;21142;-90
2021/01/26 01:37:49;;;;;;;17.27;6.65;;;;;;;-2.02;82.74;95625.47;1795277;79;21253;-92
2021/01/26 01:40:22;;;;;;;10.55;5.65;;;;;;;-2.04;82.98;95616.61;1795287;79;21269;-91
2021/01/26 01:42:53;;;;;;;12.33;6.42;;;;;;;-2.04;83.06;95620.50;1795247;79;21139;-92
2021/01/26 01:45:22;;;;;;;14.85;8.43;;;;;;;-2.04;83.18;95626.99;1795357;79;21135;-92
2021/01/26 01:47:55;;;;;;;15.80;7.10;;;;;;;-2.05;83.31;95626.70;1795734;80;21104;-91
2021/01/26 01:50:47;;;;;;;12.00;6.60;;;;;;;-2.04;83.62;95634.78;1795358;79;21464;-90
2021/01/26 01:53:24;;;;;;;11.25;7.60;;;;;;;-2.05;83.76;95629.81;1795290;79;21250;-90
2021/01/26 01:56:12;;;;;;;10.72;5.50;;;;;;;-2.10;83.98;95622.70;1795300;79;21251;-91
2021/01/26 01:58:43;;;;;;;19.25;7.45;;;;;;;-2.13;83.81;95625.72;1795263;80;21314;-91
2021/01/26 02:01:16;;;;;;;12.25;6.33;;;;;;;-2.14;83.96;95624.92;1795620;79;21712;-90
2021/01/26 02:03:53;;;;;;;11.95;6.12;;;;;;;-2.15;83.83;95634.23;1795342;80;21609;-90
2021/01/26 02:06:24;;;;;;;11.40;6.53;;;;;;;-2.17;83.87;95638.87;1795344;79;21626;-89
2021/01/26 02:08:57;;;;;;;10.25;5.58;;;;;;;-2.17;83.60;95632.38;1795236;80;21302;-91
2021/01/26 02:11:24;;;;;;;11.73;5.92;;;;;;;-2.16;83.48;95633.45;1795344;80;21261;-91
2021/01/26 02:13:52;;;;;;;13.10;6.78;;;;;;;-2.16;83.68;95631.36;1795333;79;21273;-90
2021/01/26 02:16:45;;;;;;;13.43;7.12;;;;;;;-2.18;83.68;95642.48;1795259;79;21257;-90
2021/01/26 02:19:43;;;;;;;16.97;6.42;;;;;;;-2.18;83.66;95647.16;1795231;79;21104;-90
2021/01/26 02:22:24;;;;;;;17.65;9.80;;;;;;;-2.19;84.06;95646.09;1795252;79;21293;-91
2021/01/26 02:25:45;;;;;;;10.82;6.35;;;;;;;-2.23;84.12;95651.45;1795917;79;21135;-92
2021/01/26 02:28:48;;;;;;;13.75;5.65;;;;;;;-2.23;84.16;95655.34;1760782;81;21118;-91
2021/01/26 02:32:00;;;;;;;12.88;5.92;;;;;;;-2.24;84.54;95652.46;1795182;79;21119;-91
2021/01/26 02:34:48;;;;;;;6.40;3.30;;;;;;;-2.28;84.39;95660.39;1795222;80;21119;-91
2021/01/26 02:37:39;;;;;;;12.07;5.70;;;;;;;-2.29;83.97;95654.91;1797610;79;21080;-91
2021/01/26 02:40:14;;;;;;;13.48;4.05;;;;;;;-2.31;83.84;95646.55;1795354;79;21122;-91
2021/01/26 02:43:02;;;;;;;13.72;4.20;;;;;;;-2.32;83.19;95645.77;1795206;79;21159;-91
2021/01/26 02:45:41;;;;;;;7.22;3.62;;;;;;;-2.33;82.62;95643.39;1795226;80;21622;-92
2021/01/26 02:48:34;;;;;;;5.90;2.95;;;;;;;-2.31;82.03;95646.55;1795291;79;21273;-92
2021/01/26 02:51:32;;;;;;;6.80;3.67;;;;;;;-2.34;81.58;95636.11;1795314;79;21472;-91
2021/01/26 02:54:21;;;;;;;6.28;3.67;;;;;;;-2.34;81.46;95645.70;1795311;79;21269;-91
2021/01/26 02:57:09;;;;;;;4.78;3.10;;;;;;;-2.31;81.11;95629.69;1795434;79;21114;-90
2021/01/26 02:59:53;;;;;;;7.12;2.77;;;;;;;-2.29;80.99;95658.80;1795128;79;21120;-92
2021/01/26 03:02:25;;;;;;;9.38;4.53;;;;;;;-2.28;80.72;95646.11;1793046;79;21316;-91
2021/01/26 03:05:00;;;;;;;9.90;5.75;;;;;;;-2.25;80.72;95658.64;1786302;80;21117;-90
2021/01/26 03:07:32;;;;;;;7.87;4.47;;;;;;;-2.27;80.91;95658.07;1795085;79;21271;-93
2021/01/26 03:10:05;;;;;;;9.03;5.25;;;;;;;-2.27;80.81;95655.47;1795241;79;21259;-92
2021/01/26 03:12:36;;;;;;;8.93;3.50;;;;;;;-2.23;80.92;95649.64;1795214;80;21260;-92
2021/01/26 03:15:17;;;;;;;10.35;5.85;;;;;;;-2.24;81.08;95670.63;1795200;79;21595;-90
2021/01/26 03:18:01;;;;;;;9.03;3.20;;;;;;;-2.25;81.10;95677.63;1795159;79;21141;-91
2021/01/26 03:20:39;;;;;;;9.23;5.72;;;;;;;-2.24;80.86;95670.63;1795344;79;21128;-91
2021/01/26 03:23:14;;;;;;;6.75;4.05;;;;;;;-2.25;80.94;95672.44;1795201;79;21146;-91
2021/01/26 03:25:53;;;;;;;10.55;5.15;;;;;;;-2.26;80.74;95676.02;1795217;80;21251;-90
2021/01/26 03:28:25;;;;;;;10.82;4.30;;;;;;;-2.25;80.56;95677.63;1795182;80;21275;-92
2021/01/26 03:30:57;;;;;;;7.50;4.12;;;;;;;-2.27;80.38;95673.64;1795202;79;21090;-91
2021/01/26 03:33:38;;;;;;;11.68;4.90;;;;;;;-2.26;80.29;95675.23;1781952;77;21181;-90
2021/01/26 03:36:06;;;;;;;12.78;7.17;;;;;;;-2.29;80.51;95677.77;1777988;80;21118;-90
2021/01/26 03:38:34;;;;;;;11.57;6.40;;;;;;;-2.31;80.57;95684.19;1778838;81;21145;-91
2021/01/26 03:41:05;;;;;;;13.62;7.12;;;;;;;-2.34;80.54;95683.34;1778671;80;21126;-90
2021/01/26 03:43:32;;;;;;;;;;;;;;;-2.35;80.66;95683.84;1781274;80;21086;-91
2021/01/26 03:46:20;;;;;;;11.15;5.30;;;;;;;-2.33;80.60;95684.41;1747339;81;20113;-90
2021/01/26 03:49:21;;;;;;;9.95;6.12;;;;;;;-2.31;80.48;95674.60;1735791;83;21164;-91
2021/01/26 03:51:56;;;;;;;8.30;4.60;;;;;;;-2.29;80.50;95680.87;1716027;83;21155;-93
2021/01/26 03:54:34;;;;;;;7.42;4.42;;;;;;;-2.29;80.01;95680.87;1735905;82;21641;-91
2021/01/26 03:57:46;;;;;;;8.33;4.12;;;;;;;-2.28;79.88;95694.13;1717700;83;21176;-91
2021/01/26 04:00:21;;;;;;;9.80;4.60;;;;;;;-2.28;79.86;95690.23;1736369;83;21131;-90
2021/01/26 04:02:53;;;;;;;11.63;5.35;;;;;;;-2.27;79.71;95681.44;1714435;83;21131;-92
2021/01/26 04:05:32;;;;;;;7.45;4.12;;;;;;;-2.27;79.67;95697.80;1736297;83;21147;-91
2021/01/26 04:08:19;;;;;;;7.30;3.55;;;;;;;-2.28;79.62;95696.22;1716932;83;21553;-91
2021/01/26 04:10:54;;;;;;;8.50;4.55;;;;;;;-2.29;79.24;95689.45;1754260;82;21120;-92
2021/01/26 04:13:26;;;;;;;8.95;3.87;;;;;;;-2.31;79.44;95703.66;1747218;82;21162;-90
2021/01/26 04:15:58;;;;;;;12.35;5.62;;;;;;;-2.35;79.80;95703.82;1747079;82;21126;-91
2021/01/26 04:18:31;;;;;;;8.33;4.03;;;;;;;-2.34;80.08;95709.30;1747047;82;21151;-91
2021/01/26 04:20:59;;;;;;;11.93;4.67;;;;;;;-2.33;79.81;95709.58;1747093;82;21131;-92
2021/01/26 04:23:28;;;;;;;8.45;4.20;;;;;;;-2.34;79.90;95710.09;1747112;82;21519;-89
2021/01/26 04:26:13;;;;;;;8.60;4.30;;;;;;;-2.34;80.08;95715.28;1747188;82;21145;-90
2021/01/26 04:28:44;;;;;;;6.80;3.92;;;;;;;-2.34;80.15;95710.59;1747328;82;21342;-90
2021/01/26 04:31:13;;;;;;;5.58;3.47;;;;;;;-2.35;80.29;95707.72;1747220;82;21142;-90
2021/01/26 04:33:42;;;;;;;5.40;3.33;;;;;;;-2.36;80.56;95706.12;1743871;81;21189;-90
2021/01/26 04:36:13;;;;;;;9.75;4.17;;;;;;;-2.38;80.63;95713.34;1742718;82;21504;-91
2021/01/26 04:38:41;;;;;;;11.85;5.83;;;;;;;-2.41;80.78;95717.94;1729398;83;21189;-91
2021/01/26 04:41:25;;;;;;;11.22;5.47;;;;;;;-2.41;80.80;95715.34;1711928;84;21144;-91
2021/01/26 04:44:06;;;;;;;8.48;5.12;;;;;;;-2.41;80.87;95712.75;1713416;84;21472;-91
2021/01/26 04:47:06;;;;;;;9.30;4.53;;;;;;;-2.40;80.91;95719.52;1729373;83;21124;-92
2021/01/26 04:50:12;;;;;;;8.65;4.03;;;;;;;-2.40;80.93;95724.71;1742906;82;21135;-91
2021/01/26 04:53:05;;;;;;;8.25;4.12;;;;;;;-2.42;80.96;95716.36;1729455;83;21490;-92
2021/01/26 04:56:01;;;;;;;5.45;3.50;;;;;;;-2.37;81.05;95714.93;1711885;84;21488;-91
2021/01/26 04:58:40;;;;;;;13.25;7.25;;;;;;;-2.36;81.21;95723.00;1738085;82;21173;-91
2021/01/26 05:01:30;;;;;;;9.35;4.80;;;;;;;-2.39;81.35;95726.83;1729406;83;21132;-91
2021/01/26 05:04:19;;;;;;;6.55;3.77;;;;;;;-2.41;81.51;95727.53;1742674;82;21519;-91
2021/01/26 05:06:55;;;;;;;8.10;3.90;;;;;;;-2.42;81.76;95733.23;1729531;83;21151;-93
2021/01/26 05:09:33;;;;;;;7.87;4.37;;;;;;;-2.44;82.22;95724.87;1713257;84;21543;-91
2021/01/26 05:12:04;;;;;;;9.55;5.35;;;;;;;-2.45;82.64;95736.27;1753629;81;21154;-92
2021/01/26 05:14:38;;;;;;;5.17;3.50;;;;;;;-2.46;82.66;95733.38;1742797;82;21510;-90
2021/01/26 05:17:26;;;;;;;7.85;4.95;;;;;;;-2.45;82.84;95729.77;1742657;82;21139;-91
2021/01/26 05:20:16;;;;;;;11.12;5.12;;;;;;;-2.44;82.84;95738.35;1728874;83;21143;-91
2021/01/26 05:22:54;;;;;;;8.15;3.50;;;;;;;-2.43;82.87;95743.32;1713268;83;21195;-91
2021/01/26 05:25:25;;;;;;;8.58;3.77;;;;;;;-2.42;82.99;95735.03;1729648;83;21135;-91
2021/01/26 05:27:53;;;;;;;9.88;3.95;;;;;;;-2.42;83.21;95748.80;1711847;84;21515;-91
2021/01/26 05:30:33;;;;;;;7.45;3.65;;;;;;;-2.41;83.58;95747.78;1729436;83;21167;-90
2021/01/26 05:33:06;;;;;;;9.38;4.25;;;;;;;-2.43;83.86;95754.20;1722727;81;21574;-90
2021/01/26 05:35:33;;;;;;;9.60;3.85;;;;;;;-2.45;84.10;95744.05;1753909;82;21440;-92
2021/01/26 05:38:00;;;;;;;9.85;4.58;;;;;;;-2.46;84.20;95745.06;1753747;82;21511;-91
2021/01/26 05:40:38;;;;;;;8.93;4.80;;;;;;;-2.45;84.16;95744.05;1732485;82;21468;-92
2021/01/26 05:43:12;;;;;;;9.45;6.08;;;;;;;-2.42;84.19;95743.61;1753974;82;21156;-90
2021/01/26 05:45:44;;;;;;;12.40;6.90;;;;;;;-2.38;84.28;95752.28;1753869;82;21475;-92
2021/01/26 05:48:18;;;;;;;10.93;5.70;;;;;;;-2.38;84.16;95754.37;1753772;82;21160;-89
2021/01/26 05:50:49;;;;;;;11.85;4.87;;;;;;;-2.34;84.05;95757.31;1753860;82;21511;-91
2021/01/26 05:53:19;;;;;;;;;;;;;;;-2.34;83.82;95752.91;1756403;82;21132;-91
2021/01/26 05:55:57;;;;;;;8.63;4.40;;;;;;;-2.31;83.54;95760.77;1753932;82;20126;-92
2021/01/26 05:58:23;;;;;;;11.10;5.37;;;;;;;-2.30;83.46;95770.14;1752567;82;21524;-92
2021/01/26 06:00:57;;;;;;;9.58;4.87;;;;;;;-2.29;83.53;95761.34;1753524;82;21135;-91
2021/01/26 06:03:26;;;;;;;15.98;6.25;;;;;;;-2.30;83.67;95774.03;1753741;82;21140;-91
2021/01/26 06:06:14;;;;;;;15.45;6.17;;;;;;;-2.31;83.64;95764.16;1753751;82;21472;-91
2021/01/26 06:08:57;;;;;;;10.23;5.92;;;;;;;-2.29;83.74;95775.61;1753780;82;21538;-90
2021/01/26 06:11:31;;;;;;;9.35;5.40;;;;;;;-2.30;83.73;95772.73;1753967;82;21452;-91
2021/01/26 06:14:14;;;;;;;13.68;6.55;;;;;;;-2.32;83.89;95780.73;1754062;82;21135;-92
2021/01/26 06:16:41;;;;;;;9.35;5.12;;;;;;;-2.33;83.91;95794.73;1753775;82;21163;-92
2021/01/26 06:19:13;;;;;;;11.35;6.53;;;;;;;-2.31;83.40;95796.59;1753717;82;21171;-92
2021/01/26 06:21:52;;;;;;;7.17;4.65;;;;;;;-2.30;82.80;95793.50;1754026;82;21139;-91
2021/01/26 06:24:24;;;;;;;8.10;4.50;;;;;;;-2.29;82.11;95797.17;1753771;82;21140;-91
2021/01/26 06:27:16;;;;;;;11.40;5.20;;;;;;;-2.30;81.75;95800.78;1753515;82;21167;-91
2021/01/26 06:30:13;;;;;;;9.58;5.33;;;;;;;-2.31;81.45;95810.08;1751037;82;21127;-92
2021/01/26 06:32:55;;;;;;;11.68;5.47;;;;;;;-2.31;81.35;95817.88;1753780;82;21132;-90
2021/01/26 06:35:52;;;;;;;8.08;4.53;;;;;;;-2.31;81.38;95812.68;1746235;82;21160;-90
2021/01/26 06:38:43;;;;;;;9.25;3.75;;;;;;;-2.32;81.60;95819.67;1753667;82;21181;-90
2021/01/26 06:41:33;;;;;;;;;;;;;;;-2.35;81.50;95824.01;1756379;82;21104;-91
2021/01/26 06:44:17;;;;;;;5.17;3.25;;;;;;;-2.36;81.13;95817.73;1754179;82;20110;-92
2021/01/26 06:46:58;;;;;;;10.13;5.90;;;;;;;-2.37;81.25;95820.84;1752333;82;21172;-91
2021/01/26 06:50:05;;;;;;;11.50;6.12;;;;;;;-2.37;81.42;95822.64;1753818;82;21147;-91
2021/01/26 06:53:22;;;;;;;8.45;4.58;;;;;;;-2.37;81.80;95830.42;1753719;82;21511;-91
2021/01/26 06:56:11;;;;;;;9.53;5.45;;;;;;;-2.42;82.66;95828.45;1753828;82;21104;-92
2021/01/26 06:59:11;;;;;;;11.00;5.05;;;;;;;-2.50;83.31;95833.44;1753694;82;21151;-91
2021/01/26 07:02:20;;;;;;;11.03;4.65;;;;;;;-2.55;83.58;95829.38;1753813;82;21148;-93
2021/01/26 07:05:26;;;;;;;7.25;4.87;;;;;;;-2.55;83.32;95837.67;1753766;82;21491;-91
2021/01/26 07:08:36;;;;;;;9.75;5.00;;;;;;;-2.54;82.95;95835.36;1753647;82;21147;-93
2021/01/26 07:11:23;;;;;;;15.53;7.12;;;;;;;-2.49;82.47;95844.61;1753612;82;21150;-91
2021/01/26 07:14:02;;;;;;;7.97;4.60;;;;;;;-2.45;81.88;95846.55;1750658;82;21627;-91
2021/01/26 07:16:53;;;;;;;10.40;5.80;;;;;;;-2.42;81.34;95848.72;1753404;82;21147;-93
2021/01/26 07:19:47;;;;;;;7.42;4.78;;;;;;;-2.39;80.81;95844.92;1753816;82;21189;-92
2021/01/26 07:22:54;;;;;;;7.78;4.15;;;;;;;-2.35;80.21;95856.95;1753741;82;21171;-91
2021/01/26 07:25:30;;;;;;;9.05;3.92;;;;;;;-2.34;79.79;95849.45;1753370;82;21037;-91
2021/01/26 07:28:12;;;;;;;12.23;5.60;;;;;;;-2.32;79.30;95855.22;1754005;82;21155;-94
2021/01/26 07:30:56;;;;;;;7.53;4.60;;;;;;;-2.30;79.14;95851.39;1753679;82;21136;-93
2021/01/26 07:33:43;;;;;;;10.72;5.75;;;;;;;-2.27;78.90;95859.25;1750061;82;21163;-93
2021/01/26 07:36:33;;;;;;;6.85;3.27;;;;;;;-2.25;79.08;95861.13;1761118;81;21120;-92
2021/01/26 07:39:11;;;;;;;6.78;4.22;;;;;;;-2.22;79.13;95864.61;1741975;82;21197;-94
2021/01/26 07:41:44;;;;;;;9.50;4.15;;;;;;;-2.22;79.23;95856.31;1729304;83;21524;-92
2021/01/26 07:44:20;;;;;;;8.15;4.60;;;;;;;-2.21;79.74;95870.09;1741843;82;21108;-92
2021/01/26 07:47:01;;;;;;;6.33;3.65;;;;;;;-2.22;79.91;95865.41;1729314;83;21148;-91
2021/01/26 07:49:42;;;;;;;9.03;5.28;;;;;;;-2.21;79.89;95865.69;1740652;82;21171;-93
2021/01/26 07:52:11;;;;;;;9.90;5.10;;;;;;;-2.22;80.11;95873.19;1730880;83;21500;-92
2021/01/26 07:54:49;;;;;;;6.67;2.77;;;;;;;-2.21;80.40;95876.58;1741817;82;21116;-93
2021/01/26 07:57:19;;;;;;;9.78;4.78;;;;;;;-2.22;80.82;95874.99;1730592;83;21148;-92
2021/01/26 07:59:54;;;;;;;10.05;5.20;;;;;;;-2.26;81.45;95880.30;1741987;82;21456;-92
2021/01/26 08:02:32;;;;;;;10.03;5.37;;;;;;;-2.29;82.19;95875.55;1730850;83;21185;-92
2021/01/26 08:04:59;;;;;;;17.32;7.67;;;;;;;-2.33;82.58;95882.19;1754528;82;21262;-92
2021/01/26 08:07:30;;;;;;;12.13;7.10;;;;;;;-2.35;82.71;95885.00;1754577;82;21312;-93
2021/01/26 08:10:01;;;;;;;13.45;6.08;;;;;;;-2.33;82.89;95882.98;1754466;81;21274;-92
2021/01/26 08:12:37;;;;;;;4.85;3.45;;;;;;;-2.28;82.68;95884.42;1754794;82;21274;-91
2021/01/26 08:15:22;;;;;;;8.53;4.40;;;;;;;-2.19;82.07;95883.64;1754445;81;21142;-92
2021/01/26 08:17:49;;;;;;;10.05;5.33;;;;;;;-2.05;81.37;95892.87;1750915;81;21117;-90
2021/01/26 08:20:33;;;;;;;9.90;4.97;;;;;;;-1.79;81.17;95891.80;1754571;82;21266;-91
2021/01/26 08:23:10;;;;;;;5.53;3.70;;;;;;;-1.66;80.54;95889.55;1754561;82;21151;-91
2021/01/26 08:25:43;;;;;;;9.18;4.40;;;;;;;-1.72;79.68;95892.50;1754370;82;21135;-90
2021/01/26 08:28:14;;;;;;;9.98;5.17;;;;;;;-1.73;79.66;95897.91;1754387;82;21528;-92
2021/01/26 08:30:50;;;;;;;12.00;5.62;;;;;;;-1.71;79.69;95897.19;1736635;81;21175;-91
2021/01/26 08:33:21;;;;;;;7.08;3.83;;;;;;;-1.62;79.58;95897.98;1754206;81;21534;-91
2021/01/26 08:36:06;;;;;;;7.03;4.33;;;;;;;-1.47;79.08;95899.40;1754083;82;21151;-92
2021/01/26 08:38:59;;;;;;;10.20;4.45;;;;;;;-1.40;78.41;95898.83;1754044;82;21182;-92
2021/01/26 08:41:46;;;;;;;6.35;3.95;;;;;;;-1.38;78.08;95904.59;1752961;82;21140;-91
2021/01/26 08:44:28;;;;;;;9.05;5.25;;;;;;;-1.49;77.42;95903.52;1753806;82;21105;-93
2021/01/26 08:46:57;;;;;;;6.15;3.55;;;;;;;-1.54;77.69;95917.19;1753799;82;21136;-93
2021/01/26 08:49:33;;;;;;;9.55;5.58;;;;;;;-1.55;77.73;95922.57;1753835;82;21120;-92
2021/01/26 08:52:27;;;;;;;11.25;6.47;;;;;;;-1.55;77.81;95923.87;1753774;82;21120;-92
2021/01/26 08:54:56;;;;;;;5.92;3.45;;;;;;;-1.52;78.05;95928.15;1753757;82;21131;-91
2021/01/26 08:57:31;;;;;;;11.38;7.00;;;;;;;-1.47;77.58;95918.89;1753816;82;21158;-91
2021/01/26 09:00:15;;;;;;;7.80;3.60;;;;;;;-1.47;77.64;95931.38;1752125;82;21132;-93
2021/01/26 09:02:50;;;;;;;8.65;5.00;;;;;;;-1.46;77.03;95922.57;1753400;82;21140;-90
2021/01/26 09:05:44;;;;;;;5.58;3.77;;;;;;;-1.51;76.88;95927.13;1753873;82;21127;-92
2021/01/26 09:08:11;;;;;;;11.22;5.95;;;;;;;-1.53;76.54;95933.56;1753782;82;21183;-90
2021/01/26 09:10:51;;;;;;;9.73;5.72;;;;;;;-1.55;76.99;95935.09;1754131;82;21163;-90
2021/01/26 09:13:32;;;;;;;4.95;2.90;;;;;;;-1.46;77.18;95930.87;1754177;82;21160;-92
2021/01/26 09:16:04;;;;;;;8.95;4.30;;;;;;;-1.41;76.30;95940.09;1753827;82;21484;-93
2021/01/26 09:18:32;;;;;;;7.45;4.30;;;;;;;-1.34;76.14;95933.81;1752551;82;21175;-90
2021/01/26 09:21:04;;;;;;;4.05;2.90;;;;;;;-1.31;75.67;95935.97;1753755;82;21523;-92
2021/01/26 09:23:32;;;;;;;7.70;4.53;;;;;;;-1.26;75.57;95942.62;1754111;82;21159;-91
2021/01/26 09:26:00;;;;;;;7.17;3.83;;;;;;;-1.22;75.28;95926.86;1753935;82;21143;-92
2021/01/26 09:28:32;;;;;;;7.55;3.55;;;;;;;-1.16;75.21;95938.69;1753797;82;21487;-91
2021/01/26 09:31:02;;;;;;;6.55;3.20;;;;;;;-1.10;75.12;95943.81;1751241;82;21143;-93
2021/01/26 09:33:32;;;;;;;7.85;3.62;;;;;;;-1.02;74.88;95953.10;1752458;82;21480;-90
2021/01/26 09:36:11;;;;;;;6.05;3.60;;;;;;;-1.06;74.47;95949.36;1729529;83;21461;-91
2021/01/26 09:38:45;;;;;;;7.97;4.47;;;;;;;-1.18;74.69;95943.32;1741825;82;21473;-91
2021/01/26 09:41:32;;;;;;;10.38;5.85;;;;;;;-1.22;75.42;95952.87;1729317;83;21121;-91
2021/01/26 09:44:13;;;;;;;10.18;4.85;;;;;;;-1.26;75.67;95947.83;1754561;82;21277;-92
2021/01/26 09:46:52;;;;;;;8.55;5.37;;;;;;;-1.32;75.98;95957.79;1754437;82;21135;-91
2021/01/26 09:49:31;;;;;;;6.53;4.12;;;;;;;-1.39;76.59;95960.20;1754233;82;21124;-92
2021/01/26 09:52:11;;;;;;;8.90;4.47;;;;;;;-1.45;77.24;95961.84;1754358;82;21495;-91
2021/01/26 09:54:42;;;;;;;8.48;4.45;;;;;;;-1.44;77.79;95960.04;1754371;81;21119;-92
2021/01/26 09:57:14;;;;;;;;;;;;;;;-1.42;77.98;95957.50;1757139;82;21131;-91
2021/01/26 09:59:45;;;;;;;12.65;7.62;;;;;;;-1.33;77.96;95963.21;1754307;82;20412;-92
2021/01/26 10:02:16;;;;;;;6.70;3.65;;;;;;;-1.21;77.73;95959.66;1754234;82;21163;-93
2021/01/26 10:04:45;;;;;;;6.40;4.15;;;;;;;-1.00;76.09;95958.88;1754720;82;21120;-92
2021/01/26 10:07:15;;;;;;;7.97;4.03;;;;;;;-0.85;75.09;95959.77;1754284;82;21128;-91
2021/01/26 10:09:43;;;;;;;8.43;3.87;;;;;;;-0.75;74.26;95965.23;1735349;82;21467;-91
2021/01/26 10:12:37;;;;;;;11.25;5.15;;;;;;;-0.71;73.69;95961.16;1735034;82;21183;-93
2021/01/26 10:15:30;;;;;;;7.30;4.03;;;;;;;-0.71;73.16;95956.75;1754255;81;21127;-91
2021/01/26 10:18:20;;;;;;;9.78;5.28;;;;;;;-0.60;73.31;95952.08;1754469;81;21180;-93
2021/01/26 10:20:55;;;;;;;8.53;4.58;;;;;;;-0.20;73.37;95963.69;1754460;81;21120;-94
2021/01/26 10:23:36;;;;;;;13.78;7.80;;;;;;;0.09;72.20;95965.89;1753652;81;21155;-91
2021/01/26 10:26:15;;;;;;;14.33;7.00;;;;;;;0.09;71.97;95962.77;1754578;81;21097;-93
2021/01/26 10:29:11;;;;;;;13.50;6.80;;;;;;;0.18;71.58;95960.11;1754212;82;21165;-92
2021/01/26 10:31:49;;;;;;;9.83;6.12;;;;;;;-0.02;70.14;95969.56;1754300;81;21119;-94
2021/01/26 10:34:25;;;;;;;5.72;2.80;;;;;;;-0.21;69.78;95970.70;1754032;81;21163;-94
2021/01/26 10:36:52;;;;;;;10.48;3.40;;;;;;;-0.43;68.81;95954.02;1750592;82;21169;-92
2021/01/26 10:39:27;;;;;;;5.08;3.47;;;;;;;-0.38;69.71;95951.56;1753725;82;21124;-94
2021/01/26 10:42:09;;;;;;;5.70;2.98;;;;;;;-0.27;69.74;95969.52;1754004;82;21117;-94
2021/01/26 10:44:54;;;;;;;9.38;4.42;;;;;;;-0.47;69.66;95971.13;1753872;82;21155;-94
2021/01/26 10:47:34;;;;;;;6.33;3.85;;;;;;;-0.56;69.98;95975.06;1754017;82;21198;-93
2021/01/26 10:50:10;;;;;;;9.55;5.35;;;;;;;-0.64;69.99;95976.98;1754085;82;21480;-92
2021/01/26 10:52:43;;;;;;;6.55;3.20;;;;;;;-0.64;70.58;95977.48;1754005;82;21140;-92
2021/01/26 10:55:16;;;;;;;6.30;3.15;;;;;;;-0.67;70.29;95980.03;1753829;82;21143;-93
2021/01/26 10:57:45;;;;;;;8.18;4.33;;;;;;;-0.66;70.18;95950.89;1753673;82;21152;-94
2021/01/26 11:00:18;;;;;;;8.45;3.40;;;;;;;-0.40;70.63;95971.31;1754040;82;21143;-93
2021/01/26 11:02:45;;;;;;;11.80;5.90;;;;;;;-0.44;70.16;95983.18;1761879;81;21152;-94
2021/01/26 11:05:13;;;;;;;7.22;4.05;;;;;;;-0.55;70.46;95961.05;1762083;81;21155;-92
2021/01/26 11:07:40;;;;;;;5.80;3.65;;;;;;;-0.54;70.65;95971.75;1762074;81;21518;-94
2021/01/26 11:10:09;;;;;;;14.55;6.83;;;;;;;-0.68;71.28;95977.15;1762370;81;21475;-93
2021/01/26 11:12:40;;;;;;;23.85;9.25;;;;;;;-0.86;72.33;95978.48;1762022;81;21269;-92
2021/01/26 11:15:16;;;;;;;13.25;5.03;;;;;;;-1.00;73.75;95983.59;1762051;81;21151;-93
2021/01/26 11:17:44;;;;;;;15.72;8.05;;;;;;;-1.08;74.70;95989.11;1761998;81;21282;-92
2021/01/26 11:20:12;;;;;;;13.20;6.83;;;;;;;-1.26;75.63;95975.13;1762104;81;21510;-91
2021/01/26 11:22:39;;;;;;;17.23;8.08;;;;;;;-1.26;75.63;95975.13;1762067;81;21155;-92
2021/01/26 11:25:09;;;;;;;19.73;9.20;;;;;;;-1.05;75.56;95997.27;1761980;81;21131;-93
2021/01/26 11:27:37;;;;;;;11.57;5.60;;;;;;;-0.95;74.52;95987.13;1762133;81;21289;-93
2021/01/26 11:30:08;;;;;;;10.28;4.55;;;;;;;-0.95;72.16;95982.44;1761959;81;21163;-92
2021/01/26 11:32:36;;;;;;;13.55;6.22;;;;;;;-0.95;72.16;95979.83;1761948;81;21125;-91
2021/01/26 11:35:06;;;;;;;8.75;3.72;;;;;;;-0.90;72.39;95988.55;1761968;81;21301;-93
2021/01/26 11:37:34;;;;;;;8.00;3.67;;;;;;;-0.81;71.58;95987.75;1762327;81;21143;-92
2021/01/26 11:40:01;;;;;;;6.47;3.22;;;;;;;-0.72;71.48;95978.59;1761986;81;21669;-91
2021/01/26 11:42:28;;;;;;;9.55;4.67;;;;;;;-0.65;71.40;95978.51;1761889;81;21281;-91
2021/01/26 11:44:56;;;;;;;6.58;4.60;;;;;;;-0.51;71.56;95977.30;1761960;81;21146;-92
2021/01/26 11:47:23;;;;;;;5.97;3.65;;;;;;;-0.25;71.39;95962.27;1761929;81;21311;-93
2021/01/26 11:49:50;;;;;;;3.50;2.40;;;;;;;-0.09;70.15;95975.41;1762001;81;21277;-95
2021/01/26 11:52:17;;;;;;;6.03;3.52;;;;;;;0.00;68.71;95966.77;1761974;81;21139;-94
2021/01/26 11:54:45;;;;;;;5.70;3.42;;;;;;;-0.03;68.77;95967.98;1761992;81;21491;-93
2021/01/26 11:57:12;;;;;;;5.50;3.30;;;;;;;-0.23;68.42;95960.23;1762227;81;21154;-94
2021/01/26 11:59:41;;;;;;;6.40;3.60;;;;;;;-0.42;69.03;95960.84;1762186;81;21253;-93
2021/01/26 12:02:08;;;;;;;8.03;4.53;;;;;;;-0.46;69.77;95972.20;1761998;81;21305;-91
2021/01/26 12:04:36;;;;;;;8.40;4.85;;;;;;;-0.46;69.77;95972.20;1762268;81;21162;-94
2021/01/26 12:07:03;;;;;;;9.73;3.37;;;;;;;-0.47;69.67;95959.41;1761931;81;21288;-92
2021/01/26 12:09:31;;;;;;;8.85;4.20;;;;;;;-0.54;69.58;95972.54;1762010;81;21531;-92
2021/01/26 12:11:58;;;;;;;12.58;5.83;;;;;;;-0.56;69.98;95965.95;1762076;81;21460;-92
2021/01/26 12:14:26;;;;;;;17.07;7.47;;;;;;;-0.57;70.25;95959.16;1761955;81;21144;-93
2021/01/26 12:16:53;;;;;;;6.47;3.67;;;;;;;-0.57;70.17;95959.16;1762163;81;21142;-92